DAAG METAR and TAF | Updated Today

DAAG METAR

Houari Boumediene Airport

Observation time: 16 min. ago

DAAG 011500Z 03010KT 9999 FEW023 15/06 Q1027

Need help? Read our tutorial on how to read METARs or read the parsed version below.

Houari Boumediene Airport (DAAG) METAR

  • Weather conditions on Wed, 01 Feb 2023 15:00:00 +0000 (16 min. ago):
  • Present conditions: Dry
  • Clouds: A few at 701 meters
  • Visibility: Greater than 10 km
  • Wind: 30 degrees at 10 knots
  • Temperature: 15 celsius
  • Dew point: 6 celsius
  • Pressure: 1027 millibars
  • Remarks: None


Useful to know...

DAAG TAF

Houari Boumediene Airport

TAF DAAG 011100Z 0112/0212 02010KT 9999 FEW023 BECMG 0116/0118 VRB02KT
Observation time: 4:16 hr. ago
Need help? Read our tutorial on how to read TAFs or read the parsed version below.

Parsed version of TAF for Houari Boumediene Airport (DAAG)

  • From 01 February at 12:00 UTC, to day 02 of the month at 12:00 UTC
  • Clouds: A few at 701 meters
  • Visibility: Greater than 10 km
  • Wind: 20 degrees at 10
  • Expected to arise soon, from 01 February at 16:00 UTC, to day 01 of the month at 18:00 UTC
  • Wind: Variable at 2

Airports near DAAG

No airports found within 100nm radius.